Seraphima — D5IN5 — position and weather

sailwx.info

Track history (hours):
 
Tides and Currents Weather Stations Pressure Air Temp Water Temp Dewpoint Dewpoint Depression Visibility Wind Speed Wind Dir Waves Ship Positions

Seraphima

Last reported at 2017-Sep-19 09:55 UTC. Time now 2017-Sep-19 15:31 UTC.
Position N 37°38' E 025°51'.

Length 123 m; draft 4.2 m.

Type: Cargo ship. MMSI: 636016941.

Date/timePositionNaut miles runAvg speedWind from/ knotsBaromVisibWave heightAir tempDewpointWater temp
2017-Sep-19 09:55N 37°38' E 025°51'4 8.1
2017-Sep-19 09:26N 37°34' E 025°52'4 8.3
2017-Sep-19 09:00N 37°31' E 025°53'  
2017-Sep-12 22:31N 35°54' E 032°47'3 7.2
2017-Sep-12 22:05N 35°54' E 032°43'1 7.2
2017-Sep-12 21:58N 35°54' E 032°42'10 7.2
2017-Sep-12 20:34N 35°55' E 032°30'1 7.4
2017-Sep-12 20:29N 35°55' E 032°29'16 7.3
2017-Sep-12 18:15N 35°56' E 032°09'2 7.3
2017-Sep-12 17:56N 35°56' E 032°06'3 7.4
2017-Sep-12 17:28N 35°56' E 032°02'48 7.6
2017-Sep-12 11:11N 35°58' E 031°03'4 7.6
2017-Sep-12 10:41N 35°58' E 030°58'1 7.6
2017-Sep-12 10:30N 35°58' E 030°56'4 7.7
2017-Sep-12 09:57N 35°58' E 030°51'4 7.9
2017-Sep-12 09:30N 35°58' E 030°47'4 8.1
2017-Sep-12 09:00N 35°58' E 030°42'4 8.0
2017-Sep-12 08:30N 35°58' E 030°37'4 8.0
2017-Sep-12 08:00N 35°58' E 030°32'4 7.9
2017-Sep-12 07:30N 35°59' E 030°27'235 6.9
2017-Sep-10 21:37N 37°28' E 025°56'1 7.6
2017-Sep-10 21:30N 37°28' E 025°55'4 7.5
2017-Sep-10 21:00N 37°31' E 025°52'4 7.5
2017-Sep-10 20:30N 37°35' E 025°50'210 6.7
2017-Sep-09 12:54N 40°47' E 027°40'  
Track history (hours):
 
Tides and Currents Weather Stations Pressure Air Temp Water Temp Dewpoint Dewpoint Depression Visibility Wind Speed Wind Dir Waves Ship Positions

Seraphima

Last reported at 2017-Sep-19 09:55 UTC. Time now 2017-Sep-19 15:31 UTC.
Position N 37°38' E 025°51'.

Length 123 m; draft 4.2 m.

Type: Cargo ship. MMSI: 636016941.

Date/timePositionNaut miles runAvg speedWind from/ knotsBaromVisibWave heightAir tempDewpointWater temp
2017-Sep-19 09:55N 37°38' E 025°51'4 8.1
2017-Sep-19 09:26N 37°34' E 025°52'4 8.3
2017-Sep-19 09:00N 37°31' E 025°53'  
2017-Sep-12 22:31N 35°54' E 032°47'3 7.2
2017-Sep-12 22:05N 35°54' E 032°43'1 7.2
2017-Sep-12 21:58N 35°54' E 032°42'10 7.2
2017-Sep-12 20:34N 35°55' E 032°30'1 7.4
2017-Sep-12 20:29N 35°55' E 032°29'16 7.3
2017-Sep-12 18:15N 35°56' E 032°09'2 7.3
2017-Sep-12 17:56N 35°56' E 032°06'3 7.4
2017-Sep-12 17:28N 35°56' E 032°02'48 7.6
2017-Sep-12 11:11N 35°58' E 031°03'4 7.6
2017-Sep-12 10:41N 35°58' E 030°58'1 7.6
2017-Sep-12 10:30N 35°58' E 030°56'4 7.7
2017-Sep-12 09:57N 35°58' E 030°51'4 7.9
2017-Sep-12 09:30N 35°58' E 030°47'4 8.1
2017-Sep-12 09:00N 35°58' E 030°42'4 8.0
2017-Sep-12 08:30N 35°58' E 030°37'4 8.0
2017-Sep-12 08:00N 35°58' E 030°32'4 7.9
2017-Sep-12 07:30N 35°59' E 030°27'235 6.9
2017-Sep-10 21:37N 37°28' E 025°56'1 7.6
2017-Sep-10 21:30N 37°28' E 025°55'4 7.5
2017-Sep-10 21:00N 37°31' E 025°52'4 7.5
2017-Sep-10 20:30N 37°35' E 025°50'210 6.7
2017-Sep-09 12:54N 40°47' E 027°40'  

Dump ship's entire track history